Palchem 1 — 9HA2097 — position and weather

sailwx.info

Track history (hours):
 
Tides and Currents Weather Stations Pressure Air Temp Water Temp Dewpoint Dewpoint Depression Visibility Wind Speed Wind Dir Waves Ship Positions

Palchem 1

Last reported at 2016-Jun-17 20:16 UTC. Time now 2016-Jul-30 13:03 UTC.
Position N 31°22' E 032°20'.
Warning: this ship's position is 42 days out of date.

Length 143 m; draft 8.8 m.

Type: Ship (hazmat cat B). MMSI: 249955000.

Date/timePositionNaut miles runAvg speedWind from/ knotsBaromVisibWave heightAir tempDewpointWater temp
2016-Jun-17 20:16N 31°22' E 032°20'0 0.0
2016-Jun-17 16:04N 31°22' E 032°20'0 0.0
2016-Jun-17 15:10N 31°22' E 032°20'0 0.0
2016-Jun-17 14:33N 31°22' E 032°20'0 0.0
2016-Jun-17 13:27N 31°22' E 032°20'0 0.0
2016-Jun-17 12:33N 31°22' E 032°20'0 0.0
2016-Jun-17 11:30N 31°22' E 032°20'  
2016-Jun-15 05:31N 37°21' E 025°55'14811.2
2016-Jun-14 16:15N 39°49' E 025°49'7 7.5
2016-Jun-14 15:22N 39°55' E 025°51'145 6.6
2016-Jun-13 17:18N 40°51' E 028°46'7 1.0
2016-Jun-13 10:09N 40°57' E 028°53'1 2.1
2016-Jun-13 09:33N 40°57' E 028°54'279 7.5
2016-Jun-11 20:25N 45°24' E 030°46'1011.0
2016-Jun-11 19:33N 45°33' E 030°50'1110.8
2016-Jun-11 18:33N 45°43' E 030°54'1110.7
2016-Jun-11 17:33N 45°54' E 030°59'1010.6
2016-Jun-11 16:33N 46°04' E 031°03'10 9.6
2016-Jun-11 15:33N 46°12' E 030°57'9 9.2
2016-Jun-11 14:33N 46°21' E 030°56'1010.3
2016-Jun-11 13:33N 46°32' E 030°55'8 7.6
2016-Jun-11 12:33N 46°35' E 031°05'9 9.4
2016-Jun-11 11:33N 46°35' E 031°19'9 8.6
2016-Jun-11 10:33N 46°35' E 031°32'9 8.7
2016-Jun-11 09:33N 46°36' E 031°44'8 7.8
2016-Jun-11 08:33N 46°38' E 031°55'8 7.6
2016-Jun-11 07:33N 46°46' E 031°53'9 8.8
2016-Jun-11 06:33N 46°54' E 032°00'3 2.8
2016-Jun-11 05:31N 46°56' E 032°01'0 0.0
2016-Jun-11 04:31N 46°56' E 032°01'0 0.0
2016-Jun-11 03:31N 46°56' E 032°01'0 0.0
2016-Jun-11 02:31N 46°56' E 032°01'0 0.0
2016-Jun-11 01:31N 46°56' E 032°01'0 0.0
2016-Jun-11 00:31N 46°56' E 032°01'0 0.0
2016-Jun-10 23:31N 46°56' E 032°01'0 0.0
2016-Jun-10 22:28N 46°56' E 032°01'0 0.0
2016-Jun-10 21:31N 46°56' E 032°01'0 0.0
2016-Jun-10 20:31N 46°56' E 032°01'0 0.0
2016-Jun-10 19:31N 46°56' E 032°01'0 0.0
2016-Jun-10 18:31N 46°56' E 032°01'0 0.0
2016-Jun-10 17:31N 46°56' E 032°01'0 0.0
2016-Jun-10 16:28N 46°56' E 032°01'0 0.0
2016-Jun-10 15:31N 46°56' E 032°01'0 0.0
2016-Jun-10 14:31N 46°56' E 032°01'0 0.0
2016-Jun-10 13:31N 46°56' E 032°01'0 0.0
2016-Jun-10 12:31N 46°56' E 032°01'0 0.0
2016-Jun-10 11:31N 46°56' E 032°01'0 0.0
2016-Jun-10 10:33N 46°56' E 032°01'0 0.0
2016-Jun-10 09:33N 46°56' E 032°01'0 0.0
2016-Jun-10 08:33N 46°56' E 032°01'0 0.0
2016-Jun-10 07:33N 46°56' E 032°01'0 0.0
2016-Jun-10 06:33N 46°56' E 032°01'0 0.0
2016-Jun-10 05:33N 46°56' E 032°01'0 0.0
2016-Jun-10 04:33N 46°56' E 032°01'0 0.0
2016-Jun-10 03:33N 46°56' E 032°01'0 0.0
2016-Jun-10 02:33N 46°56' E 032°01'0 0.0
2016-Jun-10 01:30N 46°56' E 032°01'0 0.0
2016-Jun-10 00:33N 46°56' E 032°01'0 0.0
2016-Jun-09 23:33N 46°56' E 032°01'0 0.0
2016-Jun-09 22:33N 46°56' E 032°01'0 0.0
2016-Jun-09 21:33N 46°56' E 032°01'0 0.0
2016-Jun-09 20:33N 46°56' E 032°01'0 0.0
2016-Jun-09 19:33N 46°56' E 032°01'0 0.0
2016-Jun-09 18:33N 46°56' E 032°01'0 0.0
2016-Jun-09 17:33N 46°56' E 032°01'0 0.0
2016-Jun-09 16:33N 46°56' E 032°01'0 0.0
2016-Jun-09 15:32N 46°56' E 032°01'0 0.0
2016-Jun-09 14:32N 46°56' E 032°01'0 0.0
2016-Jun-09 13:33N 46°56' E 032°01'0 0.0
2016-Jun-09 12:32N 46°56' E 032°01'0 0.0
2016-Jun-09 11:32N 46°56' E 032°01'0 0.0
2016-Jun-09 10:32N 46°56' E 032°01'0 0.0
2016-Jun-09 09:32N 46°56' E 032°01'0 0.0
2016-Jun-09 08:32N 46°56' E 032°01'0 0.0
2016-Jun-09 07:30N 46°56' E 032°01'0 0.0
2016-Jun-09 06:31N 46°56' E 032°01'0 0.0
2016-Jun-09 05:33N 46°56' E 032°01'0 0.0
2016-Jun-09 04:33N 46°56' E 032°01'0 0.0
2016-Jun-09 03:33N 46°56' E 032°01'0 0.0
2016-Jun-09 02:33N 46°56' E 032°01'0 0.0
2016-Jun-09 01:33N 46°56' E 032°01'0 0.0
2016-Jun-09 00:33N 46°56' E 032°01'0 0.0
2016-Jun-08 23:33N 46°56' E 032°01'0 0.0
2016-Jun-08 22:33N 46°56' E 032°01'0 0.0
2016-Jun-08 21:33N 46°56' E 032°01'0 0.0
2016-Jun-08 20:33N 46°56' E 032°01'0 0.0
2016-Jun-08 19:18N 46°56' E 032°01'0 0.0
2016-Jun-08 18:31N 46°56' E 032°01'0 0.0
2016-Jun-08 17:31N 46°56' E 032°01'0 0.0
2016-Jun-08 16:31N 46°56' E 032°01'0 0.0
2016-Jun-08 15:31N 46°56' E 032°01'0 0.0
2016-Jun-08 14:31N 46°56' E 032°01'0 0.0
2016-Jun-08 13:33N 46°56' E 032°01'0 0.0
2016-Jun-08 12:33N 46°56' E 032°01'0 0.0
2016-Jun-08 11:33N 46°56' E 032°01'0 0.0
2016-Jun-08 10:33N 46°56' E 032°01'0 0.0
2016-Jun-08 09:33N 46°56' E 032°01'0 0.0
2016-Jun-08 08:34N 46°56' E 032°01'6 5.7
2016-Jun-08 07:33N 46°51' E 031°57'10 9.7
2016-Jun-08 06:33N 46°42' E 031°56'1010.1
2016-Jun-08 05:33N 46°36' E 031°44'1110.7
2016-Jun-08 04:33N 46°36' E 031°29'1111.0
2016-Jun-08 03:33N 46°35' E 031°13'9 9.2
2016-Jun-08 02:33N 46°33' E 030°59'4 4.0
2016-Jun-08 01:33N 46°30' E 030°57'7 7.5
2016-Jun-08 00:33N 46°22' E 030°57'7 7.1
2016-Jun-07 23:33N 46°15' E 030°59'1110.8
2016-Jun-07 22:33N 46°05' E 031°06'1212.1
2016-Jun-07 21:33N 45°54' E 031°01'  
Track history (hours):
 
Tides and Currents Weather Stations Pressure Air Temp Water Temp Dewpoint Dewpoint Depression Visibility Wind Speed Wind Dir Waves Ship Positions

Palchem 1

Last reported at 2016-Jun-17 20:16 UTC. Time now 2016-Jul-30 13:03 UTC.
Position N 31°22' E 032°20'.
Warning: this ship's position is 42 days out of date.

Length 143 m; draft 8.8 m.

Type: Ship (hazmat cat B). MMSI: 249955000.

Date/timePositionNaut miles runAvg speedWind from/ knotsBaromVisibWave heightAir tempDewpointWater temp
2016-Jun-17 20:16N 31°22' E 032°20'0 0.0
2016-Jun-17 16:04N 31°22' E 032°20'0 0.0
2016-Jun-17 15:10N 31°22' E 032°20'0 0.0
2016-Jun-17 14:33N 31°22' E 032°20'0 0.0
2016-Jun-17 13:27N 31°22' E 032°20'0 0.0
2016-Jun-17 12:33N 31°22' E 032°20'0 0.0
2016-Jun-17 11:30N 31°22' E 032°20'  
2016-Jun-15 05:31N 37°21' E 025°55'14811.2
2016-Jun-14 16:15N 39°49' E 025°49'7 7.5
2016-Jun-14 15:22N 39°55' E 025°51'145 6.6
2016-Jun-13 17:18N 40°51' E 028°46'7 1.0
2016-Jun-13 10:09N 40°57' E 028°53'1 2.1
2016-Jun-13 09:33N 40°57' E 028°54'279 7.5
2016-Jun-11 20:25N 45°24' E 030°46'1011.0
2016-Jun-11 19:33N 45°33' E 030°50'1110.8
2016-Jun-11 18:33N 45°43' E 030°54'1110.7
2016-Jun-11 17:33N 45°54' E 030°59'1010.6
2016-Jun-11 16:33N 46°04' E 031°03'10 9.6
2016-Jun-11 15:33N 46°12' E 030°57'9 9.2
2016-Jun-11 14:33N 46°21' E 030°56'1010.3
2016-Jun-11 13:33N 46°32' E 030°55'8 7.6
2016-Jun-11 12:33N 46°35' E 031°05'9 9.4
2016-Jun-11 11:33N 46°35' E 031°19'9 8.6
2016-Jun-11 10:33N 46°35' E 031°32'9 8.7
2016-Jun-11 09:33N 46°36' E 031°44'8 7.8
2016-Jun-11 08:33N 46°38' E 031°55'8 7.6
2016-Jun-11 07:33N 46°46' E 031°53'9 8.8
2016-Jun-11 06:33N 46°54' E 032°00'3 2.8
2016-Jun-11 05:31N 46°56' E 032°01'0 0.0
2016-Jun-11 04:31N 46°56' E 032°01'0 0.0
2016-Jun-11 03:31N 46°56' E 032°01'0 0.0
2016-Jun-11 02:31N 46°56' E 032°01'0 0.0
2016-Jun-11 01:31N 46°56' E 032°01'0 0.0
2016-Jun-11 00:31N 46°56' E 032°01'0 0.0
2016-Jun-10 23:31N 46°56' E 032°01'0 0.0
2016-Jun-10 22:28N 46°56' E 032°01'0 0.0
2016-Jun-10 21:31N 46°56' E 032°01'0 0.0
2016-Jun-10 20:31N 46°56' E 032°01'0 0.0
2016-Jun-10 19:31N 46°56' E 032°01'0 0.0
2016-Jun-10 18:31N 46°56' E 032°01'0 0.0
2016-Jun-10 17:31N 46°56' E 032°01'0 0.0
2016-Jun-10 16:28N 46°56' E 032°01'0 0.0
2016-Jun-10 15:31N 46°56' E 032°01'0 0.0
2016-Jun-10 14:31N 46°56' E 032°01'0 0.0
2016-Jun-10 13:31N 46°56' E 032°01'0 0.0
2016-Jun-10 12:31N 46°56' E 032°01'0 0.0
2016-Jun-10 11:31N 46°56' E 032°01'0 0.0
2016-Jun-10 10:33N 46°56' E 032°01'0 0.0
2016-Jun-10 09:33N 46°56' E 032°01'0 0.0
2016-Jun-10 08:33N 46°56' E 032°01'0 0.0
2016-Jun-10 07:33N 46°56' E 032°01'0 0.0
2016-Jun-10 06:33N 46°56' E 032°01'0 0.0
2016-Jun-10 05:33N 46°56' E 032°01'0 0.0
2016-Jun-10 04:33N 46°56' E 032°01'0 0.0
2016-Jun-10 03:33N 46°56' E 032°01'0 0.0
2016-Jun-10 02:33N 46°56' E 032°01'0 0.0
2016-Jun-10 01:30N 46°56' E 032°01'0 0.0
2016-Jun-10 00:33N 46°56' E 032°01'0 0.0
2016-Jun-09 23:33N 46°56' E 032°01'0 0.0
2016-Jun-09 22:33N 46°56' E 032°01'0 0.0
2016-Jun-09 21:33N 46°56' E 032°01'0 0.0
2016-Jun-09 20:33N 46°56' E 032°01'0 0.0
2016-Jun-09 19:33N 46°56' E 032°01'0 0.0
2016-Jun-09 18:33N 46°56' E 032°01'0 0.0
2016-Jun-09 17:33N 46°56' E 032°01'0 0.0
2016-Jun-09 16:33N 46°56' E 032°01'0 0.0
2016-Jun-09 15:32N 46°56' E 032°01'0 0.0
2016-Jun-09 14:32N 46°56' E 032°01'0 0.0
2016-Jun-09 13:33N 46°56' E 032°01'0 0.0
2016-Jun-09 12:32N 46°56' E 032°01'0 0.0
2016-Jun-09 11:32N 46°56' E 032°01'0 0.0
2016-Jun-09 10:32N 46°56' E 032°01'0 0.0
2016-Jun-09 09:32N 46°56' E 032°01'0 0.0
2016-Jun-09 08:32N 46°56' E 032°01'0 0.0
2016-Jun-09 07:30N 46°56' E 032°01'0 0.0
2016-Jun-09 06:31N 46°56' E 032°01'0 0.0
2016-Jun-09 05:33N 46°56' E 032°01'0 0.0
2016-Jun-09 04:33N 46°56' E 032°01'0 0.0
2016-Jun-09 03:33N 46°56' E 032°01'0 0.0
2016-Jun-09 02:33N 46°56' E 032°01'0 0.0
2016-Jun-09 01:33N 46°56' E 032°01'0 0.0
2016-Jun-09 00:33N 46°56' E 032°01'0 0.0
2016-Jun-08 23:33N 46°56' E 032°01'0 0.0
2016-Jun-08 22:33N 46°56' E 032°01'0 0.0
2016-Jun-08 21:33N 46°56' E 032°01'0 0.0
2016-Jun-08 20:33N 46°56' E 032°01'0 0.0
2016-Jun-08 19:18N 46°56' E 032°01'0 0.0
2016-Jun-08 18:31N 46°56' E 032°01'0 0.0
2016-Jun-08 17:31N 46°56' E 032°01'0 0.0
2016-Jun-08 16:31N 46°56' E 032°01'0 0.0
2016-Jun-08 15:31N 46°56' E 032°01'0 0.0
2016-Jun-08 14:31N 46°56' E 032°01'0 0.0
2016-Jun-08 13:33N 46°56' E 032°01'0 0.0
2016-Jun-08 12:33N 46°56' E 032°01'0 0.0
2016-Jun-08 11:33N 46°56' E 032°01'0 0.0
2016-Jun-08 10:33N 46°56' E 032°01'0 0.0
2016-Jun-08 09:33N 46°56' E 032°01'0 0.0
2016-Jun-08 08:34N 46°56' E 032°01'6 5.7
2016-Jun-08 07:33N 46°51' E 031°57'10 9.7
2016-Jun-08 06:33N 46°42' E 031°56'1010.1
2016-Jun-08 05:33N 46°36' E 031°44'1110.7
2016-Jun-08 04:33N 46°36' E 031°29'1111.0
2016-Jun-08 03:33N 46°35' E 031°13'9 9.2
2016-Jun-08 02:33N 46°33' E 030°59'4 4.0
2016-Jun-08 01:33N 46°30' E 030°57'7 7.5
2016-Jun-08 00:33N 46°22' E 030°57'7 7.1
2016-Jun-07 23:33N 46°15' E 030°59'1110.8
2016-Jun-07 22:33N 46°05' E 031°06'1212.1
2016-Jun-07 21:33N 45°54' E 031°01'  

Dump ship's entire track history